Nearby METAR Reports

 

GCLP - Las Palmas/Gando, Spain
Distance from station: NE 26km
Updated: 22/10/2019 16:00
Partly cloudy
Partly cloudy
 Wind from NNE
Wind: NNE 33 km/h
Temperature: 23°C
Dew Point: 12°C
Humidity: 50%
Barometer: 1017 hPa
Clouds: Partly cloudy
Visibility: 10 km
Cloud details: Few Clouds 1219 m
Partly cloudy 1676 m
2019/10/22 16:00 GCLP 221600Z 02018KT 9999 FEW040 SCT055 23/12 Q1017 NOSIG
GCTS - Tenerife Sur/Rei, Spain
Distance from station: WNW 102km
Updated: 22/10/2019 16:00
Mostly cloudy
Mostly cloudy
 Wind from E
Wind: E 24 km/h
Temperature: 23°C
Dew Point: 11°C
Humidity: 47%
Barometer: 1017 hPa
Clouds: Mostly cloudy
Visibility: 10 km
Cloud details: Few Clouds 1219 m
Mostly cloudy 1768 m
2019/10/22 16:00 GCTS 221600Z 08013KT 060V120 9999 FEW040 BKN058 23/11 Q1017 NOSIG
 
GCXO - Tenerife/Los Rod, Spain
Distance from station: NW 110km
Updated: 22/10/2019 16:00
Partly cloudy
Partly cloudy
 Wind from NW
Wind: NW 31 km/h
Temperature: 17°C
Dew Point: 12°C
Humidity: 73%
Barometer: 1019 hPa
Clouds: Partly cloudy
Visibility: 10 km
Cloud details: Few Clouds 427 m
Partly cloudy 732 m
2019/10/22 16:00 GCXO 221600Z 31017KT 280V340 9999 FEW014 SCT024 17/12 Q1019 NOSIG
GCGM - La Gomera Arpt, Spain
Distance from station: W 164km
Updated: 22/10/2019 16:00
Few Clouds
Few Clouds
 Wind from varies
Wind: varies 15 km/h, Gust: 33 km/h
Temperature: 23°C
Dew Point: 9°C
Humidity: 41%
Barometer: 1018 hPa
Clouds: Few Clouds
Visibility: 10 km
Cloud details: Few Clouds 1219 m
2019/10/22 16:00 GCGM 221600Z VRB08G18KT 9999 FEW040 23/09 Q1018 RMK R09/VRB06G16KT ARP/VRB08KT
 
GCFV - Fuerteventura Ar, Spain
Distance from station: ENE 183km
Updated: 22/10/2019 16:00
Few Clouds
Few Clouds
 Wind from NNE
Wind: NNE 31 km/h
Temperature: 25°C
Dew Point: 10°C
Humidity: 39%
Barometer: 1016 hPa
Clouds: Few Clouds
Visibility: 10 km
Cloud details: Few Clouds 1280 m
2019/10/22 16:00 GCFV 221600Z 02017KT 9999 FEW042 25/10 Q1016
GCHI - Hierro Airport, Spain
Distance from station: W 226km
Updated: 22/10/2019 16:00
Few Clouds
Few Clouds
 Wind from NNW
Wind: NNW 20 km/h
Temperature: 23°C
Dew Point: 14°C
Humidity: 57%
Barometer: 1018 hPa
Clouds: Few Clouds
Visibility: 10 km
Cloud details: Few Clouds 1829 m
2019/10/22 16:00 GCHI 221600Z 34011KT 300V020 9999 FEW060 23/14 Q1018
 
GCLA - La Palma Airport, Spain
Distance from station: WNW 233km
Updated: 22/10/2019 16:00
Mostly cloudy
Mostly cloudy
 Wind from NNE
Wind: NNE 24 km/h
Temperature: 22°C
Dew Point: 12°C
Humidity: 53%
Barometer: 1019 hPa
Clouds: Mostly cloudy
Visibility: 10 km
Cloud details: Mostly cloudy 1524 m
2019/10/22 16:00 GCLA 221600Z 02013KT 340V050 9999 BKN050 22/12 Q1019
GCRR - Arrecife/Lanzaro, Spain
Distance from station: NE 234km
Updated: 22/10/2019 16:00
Partly cloudy
Partly cloudy
 Wind from NNW
Wind: NNW 26 km/h
Temperature: 23°C
Dew Point: 14°C
Humidity: 57%
Barometer: 1017 hPa
Clouds: Partly cloudy
Visibility: 10 km
Cloud details: Partly cloudy 1219 m
2019/10/22 16:00 GCRR 221600Z 34014KT 310V020 9999 SCT040 23/14 Q1017
 
LPMA - Funchal/Madeira, Portugal
Distance from station: NNW 556km
Updated: 22/10/2019 16:00
Few Clouds
Few Clouds
 Wind from NNW
Wind: NNW 19 km/h
Temperature: 21°C
Dew Point: 11°C
Humidity: 53%
Barometer: 1019 hPa
Clouds: Few Clouds
Visibility: 10 km
Cloud details: Partly cloudy 488 m
Few Clouds 549 m
2019/10/22 16:00 LPMA 221600Z 34010KT 280V020 9999 SCT016 FEW018TCU 21/11 Q1019
LPPS - Porto Santo Isla, Portugal
Distance from station: N 594km
Updated: 22/10/2019 16:00
Few Clouds
Few Clouds
 Wind from N
Wind: N 24 km/h
Temperature: 21°C
Dew Point: 11°C
Humidity: 53%
Barometer: 1019 hPa
Clouds: Few Clouds
Visibility: 10 km
Cloud details: Few Clouds 457 m
2019/10/22 16:00 LPPS 221600Z 36013KT 9999 FEW015 21/11 Q1019